sensor_id;sensor_type;location;lat;lon;timestamp;P1;durP1;ratioP1;P2;durP2;ratioP2
32611;SDS011;19030;49.478;8.986;2023-02-01T00:01:55;11.45;;;5.28;;
32611;SDS011;19030;49.478;8.986;2023-02-01T00:03:56;12.30;;;5.80;;
32611;SDS011;19030;49.478;8.986;2023-02-01T00:05:57;9.90;;;4.95;;
32611;SDS011;19030;49.478;8.986;2023-02-01T00:07:59;12.90;;;5.78;;
32611;SDS011;19030;49.478;8.986;2023-02-01T00:09:59;12.02;;;5.47;;
32611;SDS011;19030;49.478;8.986;2023-02-01T00:12:00;12.18;;;5.55;;
32611;SDS011;19030;49.478;8.986;2023-02-01T00:14:02;9.70;;;4.80;;
32611;SDS011;19030;49.478;8.986;2023-02-01T00:16:16;9.93;;;5.07;;
32611;SDS011;19030;49.478;8.986;2023-02-01T00:18:21;10.50;;;5.55;;
32611;SDS011;19030;49.478;8.986;2023-02-01T00:20:22;10.77;;;5.38;;
32611;SDS011;19030;49.478;8.986;2023-02-01T00:22:22;9.88;;;4.90;;
32611;SDS011;19030;49.478;8.986;2023-02-01T00:24:23;10.13;;;5.38;;
32611;SDS011;19030;49.478;8.986;2023-02-01T00:26:31;9.30;;;5.03;;
32611;SDS011;19030;49.478;8.986;2023-02-01T00:28:32;11.30;;;5.07;;
32611;SDS011;19030;49.478;8.986;2023-02-01T00:30:33;10.60;;;5.72;;
32611;SDS011;19030;49.478;8.986;2023-02-01T00:32:34;9.70;;;5.10;;
32611;SDS011;19030;49.478;8.986;2023-02-01T00:34:35;9.63;;;5.47;;
32611;SDS011;19030;49.478;8.986;2023-02-01T00:36:36;10.57;;;5.72;;
32611;SDS011;19030;49.478;8.986;2023-02-01T00:38:37;10.50;;;5.90;;
32611;SDS011;19030;49.478;8.986;2023-02-01T00:40:37;11.68;;;5.32;;
32611;SDS011;19030;49.478;8.986;2023-02-01T00:42:38;8.82;;;5.18;;
32611;SDS011;19030;49.478;8.986;2023-02-01T00:44:40;9.90;;;5.70;;
32611;SDS011;19030;49.478;8.986;2023-02-01T00:46:41;10.70;;;5.30;;
32611;SDS011;19030;49.478;8.986;2023-02-01T00:48:41;10.25;;;5.45;;
32611;SDS011;19030;49.478;8.986;2023-02-01T00:50:42;10.00;;;5.32;;
32611;SDS011;19030;49.478;8.986;2023-02-01T00:52:43;11.18;;;5.97;;
32611;SDS011;19030;49.478;8.986;2023-02-01T00:54:43;11.23;;;5.22;;
32611;SDS011;19030;49.478;8.986;2023-02-01T00:56:44;12.18;;;5.63;;
32611;SDS011;19030;49.478;8.986;2023-02-01T00:58:44;9.70;;;4.95;;
32611;SDS011;19030;49.478;8.986;2023-02-01T01:00:45;11.60;;;5.90;;
32611;SDS011;19030;49.478;8.986;2023-02-01T01:02:46;12.15;;;5.93;;
32611;SDS011;19030;49.478;8.986;2023-02-01T01:04:47;11.13;;;5.20;;
32611;SDS011;19030;49.478;8.986;2023-02-01T01:06:47;10.18;;;5.78;;
32611;SDS011;19030;49.478;8.986;2023-02-01T01:08:48;11.73;;;5.38;;
32611;SDS011;19030;49.478;8.986;2023-02-01T01:10:52;10.30;;;5.78;;
32611;SDS011;19030;49.478;8.986;2023-02-01T01:12:53;9.90;;;5.20;;
32611;SDS011;19030;49.478;8.986;2023-02-01T01:14:53;10.52;;;5.50;;
32611;SDS011;19030;49.478;8.986;2023-02-01T01:16:54;11.73;;;5.60;;
32611;SDS011;19030;49.478;8.986;2023-02-01T01:18:54;9.15;;;5.28;;
32611;SDS011;19030;49.478;8.986;2023-02-01T01:20:56;10.77;;;5.60;;
32611;SDS011;19030;49.478;8.986;2023-02-01T01:22:57;10.77;;;5.78;;
32611;SDS011;19030;49.478;8.986;2023-02-01T01:24:58;10.93;;;5.28;;
32611;SDS011;19030;49.478;8.986;2023-02-01T01:26:58;10.25;;;6.05;;
32611;SDS011;19030;49.478;8.986;2023-02-01T01:28:59;10.88;;;5.35;;
32611;SDS011;19030;49.478;8.986;2023-02-01T01:31:00;11.05;;;5.25;;
32611;SDS011;19030;49.478;8.986;2023-02-01T01:33:00;13.70;;;5.95;;
32611;SDS011;19030;49.478;8.986;2023-02-01T01:35:01;9.30;;;4.93;;
32611;SDS011;19030;49.478;8.986;2023-02-01T01:37:02;10.00;;;5.50;;
32611;SDS011;19030;49.478;8.986;2023-02-01T01:39:02;11.57;;;5.55;;
32611;SDS011;19030;49.478;8.986;2023-02-01T01:41:03;12.52;;;5.72;;
32611;SDS011;19030;49.478;8.986;2023-02-01T01:43:09;10.48;;;5.72;;
32611;SDS011;19030;49.478;8.986;2023-02-01T01:45:19;10.13;;;5.18;;
32611;SDS011;19030;49.478;8.986;2023-02-01T01:47:20;12.25;;;6.10;;
32611;SDS011;19030;49.478;8.986;2023-02-01T01:49:21;10.43;;;5.80;;
32611;SDS011;19030;49.478;8.986;2023-02-01T01:51:25;9.85;;;5.55;;
32611;SDS011;19030;49.478;8.986;2023-02-01T01:53:31;8.48;;;5.15;;
32611;SDS011;19030;49.478;8.986;2023-02-01T01:55:36;11.87;;;5.73;;
32611;SDS011;19030;49.478;8.986;2023-02-01T01:57:42;10.75;;;5.35;;
32611;SDS011;19030;49.478;8.986;2023-02-01T01:59:46;9.48;;;5.30;;
32611;SDS011;19030;49.478;8.986;2023-02-01T02:01:50;10.57;;;5.22;;
32611;SDS011;19030;49.478;8.986;2023-02-01T02:03:51;12.80;;;5.38;;
32611;SDS011;19030;49.478;8.986;2023-02-01T02:05:54;10.07;;;5.55;;
32611;SDS011;19030;49.478;8.986;2023-02-01T02:07:58;10.48;;;5.63;;
32611;SDS011;19030;49.478;8.986;2023-02-01T02:10:03;9.98;;;6.05;;
32611;SDS011;19030;49.478;8.986;2023-02-01T02:12:06;10.57;;;5.22;;
32611;SDS011;19030;49.478;8.986;2023-02-01T02:14:07;11.13;;;5.82;;
32611;SDS011;19030;49.478;8.986;2023-02-01T02:21:01;11.70;;;5.45;;
32611;SDS011;19030;49.478;8.986;2023-02-01T02:23:35;11.32;;;5.78;;
32611;SDS011;19030;49.478;8.986;2023-02-01T02:28:22;10.52;;;5.10;;
32611;SDS011;19030;49.478;8.986;2023-02-01T02:37:54;9.52;;;5.13;;
32611;SDS011;19030;49.478;8.986;2023-02-01T02:40:15;10.02;;;5.32;;
32611;SDS011;19030;49.478;8.986;2023-02-01T02:42:50;10.38;;;5.78;;
32611;SDS011;19030;49.478;8.986;2023-02-01T02:45:34;14.15;;;5.45;;
32611;SDS011;19030;49.478;8.986;2023-02-01T02:48:43;14.55;;;5.82;;
32611;SDS011;19030;49.478;8.986;2023-02-01T02:50:32;13.48;;;5.25;;
32611;SDS011;19030;49.478;8.986;2023-02-01T02:53:18;11.32;;;5.65;;
32611;SDS011;19030;49.478;8.986;2023-02-01T02:55:41;11.98;;;5.90;;
32611;SDS011;19030;49.478;8.986;2023-02-01T02:57:44;10.02;;;5.00;;
32611;SDS011;19030;49.478;8.986;2023-02-01T03:00:06;11.10;;;5.63;;
32611;SDS011;19030;49.478;8.986;2023-02-01T03:02:28;10.02;;;5.15;;
32611;SDS011;19030;49.478;8.986;2023-02-01T03:04:54;8.75;;;4.82;;
32611;SDS011;19030;49.478;8.986;2023-02-01T03:09:44;11.10;;;5.47;;
32611;SDS011;19030;49.478;8.986;2023-02-01T03:11:47;9.55;;;4.75;;
32611;SDS011;19030;49.478;8.986;2023-02-01T03:14:11;12.38;;;4.60;;
32611;SDS011;19030;49.478;8.986;2023-02-01T03:20:43;10.13;;;4.95;;
32611;SDS011;19030;49.478;8.986;2023-02-01T03:22:45;9.95;;;5.55;;
32611;SDS011;19030;49.478;8.986;2023-02-01T03:26:54;14.27;;;9.25;;
32611;SDS011;19030;49.478;8.986;2023-02-01T03:29:00;13.90;;;9.88;;
32611;SDS011;19030;49.478;8.986;2023-02-01T03:31:08;14.23;;;9.35;;
32611;SDS011;19030;49.478;8.986;2023-02-01T03:33:10;12.88;;;9.18;;
32611;SDS011;19030;49.478;8.986;2023-02-01T03:35:23;13.60;;;8.68;;
32611;SDS011;19030;49.478;8.986;2023-02-01T03:37:34;13.63;;;8.43;;
32611;SDS011;19030;49.478;8.986;2023-02-01T03:39:48;11.10;;;7.97;;
32611;SDS011;19030;49.478;8.986;2023-02-01T03:41:55;14.43;;;7.68;;
32611;SDS011;19030;49.478;8.986;2023-02-01T03:46:32;14.63;;;6.88;;
32611;SDS011;19030;49.478;8.986;2023-02-01T03:48:37;11.53;;;6.23;;
32611;SDS011;19030;49.478;8.986;2023-02-01T03:50:39;12.45;;;5.97;;
32611;SDS011;19030;49.478;8.986;2023-02-01T03:52:53;12.20;;;6.90;;
32611;SDS011;19030;49.478;8.986;2023-02-01T03:55:07;10.98;;;5.95;;
32611;SDS011;19030;49.478;8.986;2023-02-01T03:57:09;12.65;;;6.20;;
32611;SDS011;19030;49.478;8.986;2023-02-01T03:59:13;11.15;;;6.07;;
32611;SDS011;19030;49.478;8.986;2023-02-01T04:01:15;10.60;;;5.65;;
32611;SDS011;19030;49.478;8.986;2023-02-01T04:03:16;13.43;;;7.43;;
32611;SDS011;19030;49.478;8.986;2023-02-01T04:05:17;12.18;;;5.45;;
32611;SDS011;19030;49.478;8.986;2023-02-01T04:07:26;12.38;;;5.57;;
32611;SDS011;19030;49.478;8.986;2023-02-01T04:09:26;12.20;;;6.30;;
32611;SDS011;19030;49.478;8.986;2023-02-01T04:11:27;12.95;;;6.20;;
32611;SDS011;19030;49.478;8.986;2023-02-01T04:13:29;14.27;;;6.22;;
32611;SDS011;19030;49.478;8.986;2023-02-01T04:15:29;11.80;;;6.20;;
32611;SDS011;19030;49.478;8.986;2023-02-01T04:17:30;12.20;;;6.13;;
32611;SDS011;19030;49.478;8.986;2023-02-01T04:19:30;10.57;;;6.15;;
32611;SDS011;19030;49.478;8.986;2023-02-01T04:21:31;14.35;;;6.43;;
32611;SDS011;19030;49.478;8.986;2023-02-01T04:23:31;11.93;;;5.55;;
32611;SDS011;19030;49.478;8.986;2023-02-01T04:25:32;10.35;;;5.88;;
32611;SDS011;19030;49.478;8.986;2023-02-01T04:27:33;13.02;;;7.03;;
32611;SDS011;19030;49.478;8.986;2023-02-01T04:29:34;11.15;;;5.97;;
32611;SDS011;19030;49.478;8.986;2023-02-01T04:31:34;10.85;;;5.97;;
32611;SDS011;19030;49.478;8.986;2023-02-01T04:33:36;12.38;;;6.00;;
32611;SDS011;19030;49.478;8.986;2023-02-01T04:35:37;12.52;;;6.82;;
32611;SDS011;19030;49.478;8.986;2023-02-01T04:37:37;14.15;;;6.50;;
32611;SDS011;19030;49.478;8.986;2023-02-01T04:39:38;11.13;;;5.93;;
32611;SDS011;19030;49.478;8.986;2023-02-01T04:41:38;14.52;;;6.18;;
32611;SDS011;19030;49.478;8.986;2023-02-01T04:43:39;11.48;;;6.13;;
32611;SDS011;19030;49.478;8.986;2023-02-01T04:45:39;14.77;;;6.13;;
32611;SDS011;19030;49.478;8.986;2023-02-01T04:47:40;13.52;;;6.90;;
32611;SDS011;19030;49.478;8.986;2023-02-01T04:49:40;9.88;;;5.85;;
32611;SDS011;19030;49.478;8.986;2023-02-01T04:51:41;12.80;;;6.45;;
32611;SDS011;19030;49.478;8.986;2023-02-01T04:53:42;12.35;;;6.63;;
32611;SDS011;19030;49.478;8.986;2023-02-01T04:55:43;15.32;;;7.28;;
32611;SDS011;19030;49.478;8.986;2023-02-01T04:57:44;11.75;;;5.95;;
32611;SDS011;19030;49.478;8.986;2023-02-01T04:59:44;11.88;;;6.03;;
32611;SDS011;19030;49.478;8.986;2023-02-01T05:01:45;14.02;;;6.70;;
32611;SDS011;19030;49.478;8.986;2023-02-01T05:03:45;15.07;;;7.10;;
32611;SDS011;19030;49.478;8.986;2023-02-01T05:05:49;13.27;;;6.90;;
32611;SDS011;19030;49.478;8.986;2023-02-01T05:07:50;13.25;;;6.60;;
32611;SDS011;19030;49.478;8.986;2023-02-01T05:09:50;14.07;;;6.55;;
32611;SDS011;19030;49.478;8.986;2023-02-01T05:11:51;14.30;;;7.68;;
32611;SDS011;19030;49.478;8.986;2023-02-01T05:14:10;12.32;;;6.72;;
32611;SDS011;19030;49.478;8.986;2023-02-01T05:16:11;15.25;;;6.78;;
32611;SDS011;19030;49.478;8.986;2023-02-01T05:18:12;13.23;;;7.28;;
32611;SDS011;19030;49.478;8.986;2023-02-01T05:20:13;13.68;;;7.15;;
32611;SDS011;19030;49.478;8.986;2023-02-01T05:22:13;12.43;;;6.93;;
32611;SDS011;19030;49.478;8.986;2023-02-01T05:24:14;13.30;;;6.95;;
32611;SDS011;19030;49.478;8.986;2023-02-01T05:26:19;11.40;;;6.15;;
32611;SDS011;19030;49.478;8.986;2023-02-01T05:28:20;12.05;;;6.07;;
32611;SDS011;19030;49.478;8.986;2023-02-01T05:30:20;10.98;;;6.22;;
32611;SDS011;19030;49.478;8.986;2023-02-01T05:32:21;11.73;;;6.60;;
32611;SDS011;19030;49.478;8.986;2023-02-01T05:34:21;10.82;;;5.97;;
32611;SDS011;19030;49.478;8.986;2023-02-01T05:36:22;10.80;;;5.60;;
32611;SDS011;19030;49.478;8.986;2023-02-01T05:38:23;11.90;;;6.18;;
32611;SDS011;19030;49.478;8.986;2023-02-01T05:40:23;15.05;;;8.02;;
32611;SDS011;19030;49.478;8.986;2023-02-01T05:42:24;11.27;;;5.05;;
32611;SDS011;19030;49.478;8.986;2023-02-01T05:44:24;11.73;;;5.57;;
32611;SDS011;19030;49.478;8.986;2023-02-01T05:46:25;10.70;;;4.97;;
32611;SDS011;19030;49.478;8.986;2023-02-01T05:48:26;12.02;;;5.03;;
32611;SDS011;19030;49.478;8.986;2023-02-01T05:50:26;10.38;;;4.75;;
32611;SDS011;19030;49.478;8.986;2023-02-01T05:52:31;10.38;;;5.13;;
32611;SDS011;19030;49.478;8.986;2023-02-01T05:54:32;9.43;;;4.00;;
32611;SDS011;19030;49.478;8.986;2023-02-01T05:56:32;8.98;;;4.72;;
32611;SDS011;19030;49.478;8.986;2023-02-01T05:58:33;9.00;;;4.30;;
32611;SDS011;19030;49.478;8.986;2023-02-01T06:00:34;7.72;;;4.43;;
32611;SDS011;19030;49.478;8.986;2023-02-01T06:02:34;10.45;;;4.53;;
32611;SDS011;19030;49.478;8.986;2023-02-01T06:04:35;6.40;;;3.17;;
32611;SDS011;19030;49.478;8.986;2023-02-01T06:06:36;6.78;;;3.17;;
32611;SDS011;19030;49.478;8.986;2023-02-01T06:08:39;7.63;;;3.85;;
32611;SDS011;19030;49.478;8.986;2023-02-01T06:10:40;6.40;;;3.20;;
32611;SDS011;19030;49.478;8.986;2023-02-01T06:12:40;8.82;;;3.45;;
32611;SDS011;19030;49.478;8.986;2023-02-01T06:14:41;6.43;;;2.92;;
32611;SDS011;19030;49.478;8.986;2023-02-01T06:16:43;7.72;;;3.40;;
32611;SDS011;19030;49.478;8.986;2023-02-01T06:18:45;7.47;;;3.33;;
32611;SDS011;19030;49.478;8.986;2023-02-01T06:20:51;4.85;;;3.00;;
32611;SDS011;19030;49.478;8.986;2023-02-01T06:22:55;8.90;;;3.35;;
32611;SDS011;19030;49.478;8.986;2023-02-01T06:24:55;8.57;;;4.07;;
32611;SDS011;19030;49.478;8.986;2023-02-01T06:26:56;9.40;;;3.60;;
32611;SDS011;19030;49.478;8.986;2023-02-01T06:28:57;10.57;;;4.05;;
32611;SDS011;19030;49.478;8.986;2023-02-01T06:30:57;7.15;;;3.40;;
32611;SDS011;19030;49.478;8.986;2023-02-01T06:33:02;6.03;;;3.08;;
32611;SDS011;19030;49.478;8.986;2023-02-01T06:35:03;6.72;;;3.63;;
32611;SDS011;19030;49.478;8.986;2023-02-01T06:37:03;8.65;;;4.05;;
32611;SDS011;19030;49.478;8.986;2023-02-01T06:39:04;10.07;;;4.10;;
32611;SDS011;19030;49.478;8.986;2023-02-01T06:41:05;7.82;;;3.53;;
32611;SDS011;19030;49.478;8.986;2023-02-01T06:43:06;7.82;;;3.80;;
32611;SDS011;19030;49.478;8.986;2023-02-01T06:45:06;7.65;;;3.35;;
32611;SDS011;19030;49.478;8.986;2023-02-01T06:47:07;6.97;;;3.60;;
32611;SDS011;19030;49.478;8.986;2023-02-01T06:49:08;7.40;;;3.40;;
32611;SDS011;19030;49.478;8.986;2023-02-01T06:51:22;8.05;;;3.58;;
32611;SDS011;19030;49.478;8.986;2023-02-01T06:53:27;7.95;;;3.47;;
32611;SDS011;19030;49.478;8.986;2023-02-01T06:55:27;7.55;;;3.80;;
32611;SDS011;19030;49.478;8.986;2023-02-01T06:57:28;6.80;;;3.47;;
32611;SDS011;19030;49.478;8.986;2023-02-01T06:59:30;7.53;;;3.58;;
32611;SDS011;19030;49.478;8.986;2023-02-01T07:01:31;11.07;;;4.97;;
32611;SDS011;19030;49.478;8.986;2023-02-01T07:03:32;9.23;;;4.55;;
32611;SDS011;19030;49.478;8.986;2023-02-01T07:05:32;14.00;;;5.57;;
32611;SDS011;19030;49.478;8.986;2023-02-01T07:07:33;11.70;;;5.28;;
32611;SDS011;19030;49.478;8.986;2023-02-01T07:09:33;7.82;;;4.32;;
32611;SDS011;19030;49.478;8.986;2023-02-01T07:11:34;12.77;;;5.75;;
32611;SDS011;19030;49.478;8.986;2023-02-01T07:13:37;15.38;;;6.35;;
32611;SDS011;19030;49.478;8.986;2023-02-01T07:15:38;15.02;;;6.47;;
32611;SDS011;19030;49.478;8.986;2023-02-01T07:17:38;11.50;;;5.45;;
32611;SDS011;19030;49.478;8.986;2023-02-01T07:19:39;13.80;;;8.65;;
32611;SDS011;19030;49.478;8.986;2023-02-01T07:21:39;14.95;;;6.63;;
32611;SDS011;19030;49.478;8.986;2023-02-01T07:23:40;14.70;;;6.80;;
32611;SDS011;19030;49.478;8.986;2023-02-01T07:25:41;12.60;;;7.97;;
32611;SDS011;19030;49.478;8.986;2023-02-01T07:27:41;17.08;;;9.00;;
32611;SDS011;19030;49.478;8.986;2023-02-01T07:29:42;14.20;;;7.40;;
32611;SDS011;19030;49.478;8.986;2023-02-01T07:31:42;16.23;;;6.72;;
32611;SDS011;19030;49.478;8.986;2023-02-01T07:33:43;16.30;;;6.82;;
32611;SDS011;19030;49.478;8.986;2023-02-01T07:35:44;16.50;;;7.68;;
32611;SDS011;19030;49.478;8.986;2023-02-01T07:37:45;16.30;;;7.05;;
32611;SDS011;19030;49.478;8.986;2023-02-01T07:39:45;17.92;;;6.75;;
32611;SDS011;19030;49.478;8.986;2023-02-01T07:41:46;19.25;;;10.80;;
32611;SDS011;19030;49.478;8.986;2023-02-01T07:43:47;16.30;;;8.32;;
32611;SDS011;19030;49.478;8.986;2023-02-01T07:45:51;13.52;;;6.40;;
32611;SDS011;19030;49.478;8.986;2023-02-01T07:47:52;12.82;;;6.03;;
32611;SDS011;19030;49.478;8.986;2023-02-01T07:49:53;15.40;;;6.22;;
32611;SDS011;19030;49.478;8.986;2023-02-01T07:51:54;12.10;;;6.05;;
32611;SDS011;19030;49.478;8.986;2023-02-01T07:53:54;13.63;;;6.38;;
32611;SDS011;19030;49.478;8.986;2023-02-01T07:55:55;11.70;;;5.85;;
32611;SDS011;19030;49.478;8.986;2023-02-01T07:57:56;14.20;;;5.78;;
32611;SDS011;19030;49.478;8.986;2023-02-01T07:59:58;13.15;;;5.88;;
32611;SDS011;19030;49.478;8.986;2023-02-01T08:02:17;24.35;;;8.45;;
32611;SDS011;19030;49.478;8.986;2023-02-01T08:04:17;14.40;;;6.45;;
32611;SDS011;19030;49.478;8.986;2023-02-01T08:06:18;17.65;;;7.07;;
32611;SDS011;19030;49.478;8.986;2023-02-01T08:08:20;11.18;;;5.72;;
32611;SDS011;19030;49.478;8.986;2023-02-01T08:10:20;13.88;;;6.63;;
32611;SDS011;19030;49.478;8.986;2023-02-01T08:12:21;12.35;;;5.82;;
32611;SDS011;19030;49.478;8.986;2023-02-01T08:14:21;15.23;;;6.47;;
32611;SDS011;19030;49.478;8.986;2023-02-01T08:16:22;12.48;;;6.28;;
32611;SDS011;19030;49.478;8.986;2023-02-01T08:18:23;13.30;;;6.00;;
32611;SDS011;19030;49.478;8.986;2023-02-01T08:20:24;11.93;;;5.65;;
32611;SDS011;19030;49.478;8.986;2023-02-01T08:22:31;13.80;;;5.65;;
32611;SDS011;19030;49.478;8.986;2023-02-01T08:24:35;14.65;;;6.43;;
32611;SDS011;19030;49.478;8.986;2023-02-01T08:26:37;13.07;;;6.30;;
32611;SDS011;19030;49.478;8.986;2023-02-01T08:28:38;19.20;;;5.40;;
32611;SDS011;19030;49.478;8.986;2023-02-01T08:30:40;19.05;;;8.85;;
32611;SDS011;19030;49.478;8.986;2023-02-01T08:32:42;14.25;;;7.18;;
32611;SDS011;19030;49.478;8.986;2023-02-01T08:34:42;10.77;;;4.80;;
32611;SDS011;19030;49.478;8.986;2023-02-01T08:36:43;17.38;;;6.88;;
32611;SDS011;19030;49.478;8.986;2023-02-01T08:38:44;14.27;;;5.60;;
32611;SDS011;19030;49.478;8.986;2023-02-01T08:40:44;11.70;;;4.97;;
32611;SDS011;19030;49.478;8.986;2023-02-01T08:42:46;14.57;;;5.43;;
32611;SDS011;19030;49.478;8.986;2023-02-01T08:44:52;15.13;;;5.40;;
32611;SDS011;19030;49.478;8.986;2023-02-01T08:46:53;19.50;;;7.65;;
32611;SDS011;19030;49.478;8.986;2023-02-01T08:48:53;14.15;;;5.38;;
32611;SDS011;19030;49.478;8.986;2023-02-01T08:50:54;13.48;;;5.40;;
32611;SDS011;19030;49.478;8.986;2023-02-01T08:52:54;12.88;;;4.90;;
32611;SDS011;19030;49.478;8.986;2023-02-01T08:54:55;12.73;;;5.00;;
32611;SDS011;19030;49.478;8.986;2023-02-01T08:56:55;10.98;;;4.53;;
32611;SDS011;19030;49.478;8.986;2023-02-01T08:58:56;13.77;;;4.72;;
32611;SDS011;19030;49.478;8.986;2023-02-01T09:00:56;17.83;;;5.97;;
32611;SDS011;19030;49.478;8.986;2023-02-01T09:03:02;12.00;;;4.45;;
32611;SDS011;19030;49.478;8.986;2023-02-01T09:05:03;13.63;;;5.43;;
32611;SDS011;19030;49.478;8.986;2023-02-01T09:07:04;14.82;;;5.40;;
32611;SDS011;19030;49.478;8.986;2023-02-01T09:09:04;12.27;;;5.00;;
32611;SDS011;19030;49.478;8.986;2023-02-01T09:11:06;10.90;;;4.32;;
32611;SDS011;19030;49.478;8.986;2023-02-01T09:13:10;23.70;;;5.93;;
32611;SDS011;19030;49.478;8.986;2023-02-01T09:15:11;14.13;;;4.97;;
32611;SDS011;19030;49.478;8.986;2023-02-01T09:17:11;12.77;;;5.10;;
32611;SDS011;19030;49.478;8.986;2023-02-01T09:19:13;10.70;;;5.13;;
32611;SDS011;19030;49.478;8.986;2023-02-01T09:21:14;20.50;;;6.93;;
32611;SDS011;19030;49.478;8.986;2023-02-01T09:23:14;12.27;;;4.75;;
32611;SDS011;19030;49.478;8.986;2023-02-01T09:25:15;11.27;;;4.68;;
32611;SDS011;19030;49.478;8.986;2023-02-01T09:27:16;11.35;;;4.55;;
32611;SDS011;19030;49.478;8.986;2023-02-01T09:29:16;16.13;;;5.28;;
32611;SDS011;19030;49.478;8.986;2023-02-01T09:31:17;17.83;;;6.07;;
32611;SDS011;19030;49.478;8.986;2023-02-01T09:33:18;20.10;;;5.90;;
32611;SDS011;19030;49.478;8.986;2023-02-01T09:35:21;18.83;;;5.95;;
32611;SDS011;19030;49.478;8.986;2023-02-01T09:37:21;17.77;;;6.05;;
32611;SDS011;19030;49.478;8.986;2023-02-01T09:39:22;16.23;;;5.72;;
32611;SDS011;19030;49.478;8.986;2023-02-01T09:41:30;18.88;;;5.55;;
32611;SDS011;19030;49.478;8.986;2023-02-01T09:43:59;16.13;;;5.18;;
32611;SDS011;19030;49.478;8.986;2023-02-01T09:48:29;14.02;;;5.38;;
32611;SDS011;19030;49.478;8.986;2023-02-01T09:50:36;12.57;;;4.80;;
32611;SDS011;19030;49.478;8.986;2023-02-01T09:52:44;14.40;;;5.20;;
32611;SDS011;19030;49.478;8.986;2023-02-01T09:55:07;14.85;;;5.15;;
32611;SDS011;19030;49.478;8.986;2023-02-01T09:57:22;17.70;;;4.90;;
32611;SDS011;19030;49.478;8.986;2023-02-01T10:01:32;16.90;;;8.43;;
32611;SDS011;19030;49.478;8.986;2023-02-01T10:03:34;14.40;;;5.07;;
32611;SDS011;19030;49.478;8.986;2023-02-01T10:08:14;20.65;;;10.93;;
32611;SDS011;19030;49.478;8.986;2023-02-01T10:10:28;17.92;;;9.90;;
32611;SDS011;19030;49.478;8.986;2023-02-01T10:17:24;18.40;;;10.57;;
32611;SDS011;19030;49.478;8.986;2023-02-01T10:22:07;14.80;;;8.52;;
32611;SDS011;19030;49.478;8.986;2023-02-01T10:24:32;19.85;;;9.27;;
32611;SDS011;19030;49.478;8.986;2023-02-01T10:26:44;16.65;;;10.60;;
32611;SDS011;19030;49.478;8.986;2023-02-01T10:28:49;18.65;;;9.30;;
32611;SDS011;19030;49.478;8.986;2023-02-01T10:30:52;14.50;;;7.75;;
32611;SDS011;19030;49.478;8.986;2023-02-01T10:35:28;17.65;;;7.63;;
32611;SDS011;19030;49.478;8.986;2023-02-01T10:37:34;16.77;;;7.13;;
32611;SDS011;19030;49.478;8.986;2023-02-01T10:39:35;20.08;;;8.50;;
32611;SDS011;19030;49.478;8.986;2023-02-01T10:41:38;19.90;;;7.53;;
32611;SDS011;19030;49.478;8.986;2023-02-01T10:43:39;16.45;;;7.80;;
32611;SDS011;19030;49.478;8.986;2023-02-01T10:45:40;21.27;;;9.60;;
32611;SDS011;19030;49.478;8.986;2023-02-01T10:47:42;20.40;;;8.48;;
32611;SDS011;19030;49.478;8.986;2023-02-01T10:49:45;15.90;;;7.85;;
32611;SDS011;19030;49.478;8.986;2023-02-01T10:51:54;15.70;;;8.38;;
32611;SDS011;19030;49.478;8.986;2023-02-01T10:54:48;17.10;;;7.18;;
32611;SDS011;19030;49.478;8.986;2023-02-01T10:56:34;15.05;;;7.25;;
32611;SDS011;19030;49.478;8.986;2023-02-01T10:58:45;14.63;;;8.20;;
32611;SDS011;19030;49.478;8.986;2023-02-01T11:00:48;18.10;;;8.10;;
32611;SDS011;19030;49.478;8.986;2023-02-01T11:02:53;20.63;;;8.45;;
32611;SDS011;19030;49.478;8.986;2023-02-01T11:05:02;21.90;;;8.70;;
32611;SDS011;19030;49.478;8.986;2023-02-01T11:07:17;15.50;;;7.28;;
32611;SDS011;19030;49.478;8.986;2023-02-01T11:09:24;18.15;;;7.88;;
32611;SDS011;19030;49.478;8.986;2023-02-01T11:11:25;20.60;;;7.47;;
32611;SDS011;19030;49.478;8.986;2023-02-01T11:13:30;17.33;;;7.20;;
32611;SDS011;19030;49.478;8.986;2023-02-01T11:15:35;16.88;;;7.28;;
32611;SDS011;19030;49.478;8.986;2023-02-01T11:17:38;17.50;;;8.38;;
32611;SDS011;19030;49.478;8.986;2023-02-01T11:19:43;17.40;;;7.22;;
32611;SDS011;19030;49.478;8.986;2023-02-01T11:21:49;20.58;;;8.10;;
32611;SDS011;19030;49.478;8.986;2023-02-01T11:23:54;19.48;;;8.23;;
32611;SDS011;19030;49.478;8.986;2023-02-01T11:26:00;17.20;;;8.15;;
32611;SDS011;19030;49.478;8.986;2023-02-01T11:28:10;17.27;;;7.47;;
32611;SDS011;19030;49.478;8.986;2023-02-01T11:30:15;15.32;;;7.45;;
32611;SDS011;19030;49.478;8.986;2023-02-01T11:32:20;22.23;;;7.45;;
32611;SDS011;19030;49.478;8.986;2023-02-01T11:34:24;32.97;;;14.27;;
32611;SDS011;19030;49.478;8.986;2023-02-01T11:36:30;34.35;;;15.07;;
32611;SDS011;19030;49.478;8.986;2023-02-01T11:38:33;21.83;;;9.52;;
32611;SDS011;19030;49.478;8.986;2023-02-01T11:40:35;21.13;;;12.15;;
32611;SDS011;19030;49.478;8.986;2023-02-01T11:42:37;22.55;;;12.35;;
32611;SDS011;19030;49.478;8.986;2023-02-01T11:45:20;23.35;;;9.02;;
32611;SDS011;19030;49.478;8.986;2023-02-01T11:47:38;17.42;;;10.85;;
32611;SDS011;19030;49.478;8.986;2023-02-01T11:49:40;18.50;;;8.68;;
32611;SDS011;19030;49.478;8.986;2023-02-01T11:54:08;18.50;;;8.60;;
32611;SDS011;19030;49.478;8.986;2023-02-01T11:58:41;20.02;;;7.50;;
32611;SDS011;19030;49.478;8.986;2023-02-01T12:03:41;15.82;;;6.97;;
32611;SDS011;19030;49.478;8.986;2023-02-01T12:06:10;16.73;;;7.30;;
32611;SDS011;19030;49.478;8.986;2023-02-01T12:13:02;19.27;;;8.43;;
32611;SDS011;19030;49.478;8.986;2023-02-01T12:15:36;17.50;;;6.05;;
32611;SDS011;19030;49.478;8.986;2023-02-01T12:17:57;14.20;;;7.15;;
32611;SDS011;19030;49.478;8.986;2023-02-01T12:35:34;20.58;;;8.57;;
32611;SDS011;19030;49.478;8.986;2023-02-01T12:46:50;23.30;;;8.50;;
32611;SDS011;19030;49.478;8.986;2023-02-01T12:51:20;21.48;;;9.00;;
32611;SDS011;19030;49.478;8.986;2023-02-01T12:53:26;19.50;;;7.82;;
32611;SDS011;19030;49.478;8.986;2023-02-01T12:55:32;23.23;;;8.73;;
32611;SDS011;19030;49.478;8.986;2023-02-01T12:57:37;23.08;;;9.73;;
32611;SDS011;19030;49.478;8.986;2023-02-01T12:59:47;22.75;;;8.75;;
32611;SDS011;19030;49.478;8.986;2023-02-01T13:02:01;20.65;;;7.68;;
32611;SDS011;19030;49.478;8.986;2023-02-01T13:06:50;19.60;;;9.55;;
32611;SDS011;19030;49.478;8.986;2023-02-01T13:09:07;18.67;;;9.18;;
32611;SDS011;19030;49.478;8.986;2023-02-01T13:11:20;17.48;;;7.85;;
32611;SDS011;19030;49.478;8.986;2023-02-01T13:13:44;23.58;;;9.23;;
32611;SDS011;19030;49.478;8.986;2023-02-01T13:15:57;16.98;;;8.55;;
32611;SDS011;19030;49.478;8.986;2023-02-01T13:18:05;20.70;;;9.48;;
32611;SDS011;19030;49.478;8.986;2023-02-01T13:20:16;18.60;;;8.98;;
32611;SDS011;19030;49.478;8.986;2023-02-01T13:22:37;18.63;;;8.23;;
32611;SDS011;19030;49.478;8.986;2023-02-01T13:26:53;19.35;;;8.70;;
32611;SDS011;19030;49.478;8.986;2023-02-01T13:29:02;16.75;;;8.23;;
32611;SDS011;19030;49.478;8.986;2023-02-01T13:33:20;22.55;;;8.27;;
32611;SDS011;19030;49.478;8.986;2023-02-01T13:41:58;15.60;;;7.68;;
32611;SDS011;19030;49.478;8.986;2023-02-01T13:44:11;12.27;;;7.50;;
32611;SDS011;19030;49.478;8.986;2023-02-01T13:46:22;17.33;;;7.68;;
32611;SDS011;19030;49.478;8.986;2023-02-01T13:48:28;15.15;;;6.80;;
32611;SDS011;19030;49.478;8.986;2023-02-01T13:50:50;18.35;;;8.07;;
32611;SDS011;19030;49.478;8.986;2023-02-01T13:57:37;15.27;;;7.30;;
32611;SDS011;19030;49.478;8.986;2023-02-01T14:01:40;17.90;;;9.32;;
32611;SDS011;19030;49.478;8.986;2023-02-01T14:03:44;15.40;;;7.72;;
32611;SDS011;19030;49.478;8.986;2023-02-01T14:05:56;19.83;;;10.80;;